sensor_id;sensor_type;location;lat;lon;timestamp;temperature;humidity
7814;DHT22;3952;48.364;16.022;2024-02-14T00:00:19;0.90;99.90
7814;DHT22;3952;48.364;16.022;2024-02-14T00:02:48;0.90;99.90
7814;DHT22;3952;48.364;16.022;2024-02-14T00:05:16;0.90;99.90
7814;DHT22;3952;48.364;16.022;2024-02-14T00:07:43;0.90;99.90
7814;DHT22;3952;48.364;16.022;2024-02-14T00:10:11;0.90;99.90
7814;DHT22;3952;48.364;16.022;2024-02-14T00:12:38;0.90;99.90
7814;DHT22;3952;48.364;16.022;2024-02-14T00:15:07;0.90;99.90
7814;DHT22;3952;48.364;16.022;2024-02-14T00:17:34;0.90;99.90
7814;DHT22;3952;48.364;16.022;2024-02-14T00:20:04;0.90;99.90
7814;DHT22;3952;48.364;16.022;2024-02-14T00:22:32;0.90;99.90
7814;DHT22;3952;48.364;16.022;2024-02-14T00:24:59;1.00;99.90
7814;DHT22;3952;48.364;16.022;2024-02-14T00:27:26;0.90;99.90
7814;DHT22;3952;48.364;16.022;2024-02-14T00:29:54;0.90;99.90
7814;DHT22;3952;48.364;16.022;2024-02-14T00:32:22;0.90;99.90
7814;DHT22;3952;48.364;16.022;2024-02-14T00:34:49;0.90;99.90
7814;DHT22;3952;48.364;16.022;2024-02-14T00:37:19;0.90;99.90
7814;DHT22;3952;48.364;16.022;2024-02-14T00:39:46;0.90;99.90
7814;DHT22;3952;48.364;16.022;2024-02-14T00:42:15;0.90;99.90
7814;DHT22;3952;48.364;16.022;2024-02-14T00:44:43;0.90;99.90
7814;DHT22;3952;48.364;16.022;2024-02-14T00:47:10;1.50;99.90
7814;DHT22;3952;48.364;16.022;2024-02-14T00:49:38;0.80;99.90
7814;DHT22;3952;48.364;16.022;2024-02-14T00:52:05;0.80;99.90
7814;DHT22;3952;48.364;16.022;2024-02-14T00:54:36;0.80;99.90
7814;DHT22;3952;48.364;16.022;2024-02-14T00:57:03;0.70;99.90
7814;DHT22;3952;48.364;16.022;2024-02-14T00:59:31;0.70;99.90
7814;DHT22;3952;48.364;16.022;2024-02-14T01:01:58;2.30;99.90
7814;DHT22;3952;48.364;16.022;2024-02-14T01:04:26;0.60;99.90
7814;DHT22;3952;48.364;16.022;2024-02-14T01:06:53;0.60;99.90
7814;DHT22;3952;48.364;16.022;2024-02-14T01:09:20;0.60;99.90
7814;DHT22;3952;48.364;16.022;2024-02-14T01:11:49;0.60;99.90
7814;DHT22;3952;48.364;16.022;2024-02-14T01:14:16;0.60;99.90
7814;DHT22;3952;48.364;16.022;2024-02-14T01:16:44;0.60;99.90
7814;DHT22;3952;48.364;16.022;2024-02-14T01:19:11;0.50;99.90
7814;DHT22;3952;48.364;16.022;2024-02-14T01:21:39;0.60;99.90
7814;DHT22;3952;48.364;16.022;2024-02-14T01:24:07;0.60;99.90
7814;DHT22;3952;48.364;16.022;2024-02-14T01:26:34;0.60;99.90
7814;DHT22;3952;48.364;16.022;2024-02-14T01:29:04;0.60;99.90
7814;DHT22;3952;48.364;16.022;2024-02-14T01:31:32;0.60;99.90
7814;DHT22;3952;48.364;16.022;2024-02-14T01:34:00;0.60;99.90
7814;DHT22;3952;48.364;16.022;2024-02-14T01:36:28;0.60;99.90
7814;DHT22;3952;48.364;16.022;2024-02-14T01:38:56;0.60;99.90
7814;DHT22;3952;48.364;16.022;2024-02-14T01:41:23;0.70;99.90
7814;DHT22;3952;48.364;16.022;2024-02-14T01:43:50;0.60;99.90
7814;DHT22;3952;48.364;16.022;2024-02-14T01:46:19;0.60;99.90
7814;DHT22;3952;48.364;16.022;2024-02-14T01:48:47;0.60;99.90
7814;DHT22;3952;48.364;16.022;2024-02-14T01:51:16;0.60;99.90
7814;DHT22;3952;48.364;16.022;2024-02-14T01:53:46;0.60;99.90
7814;DHT22;3952;48.364;16.022;2024-02-14T01:56:14;0.60;99.90
7814;DHT22;3952;48.364;16.022;2024-02-14T01:58:41;0.50;99.90
7814;DHT22;3952;48.364;16.022;2024-02-14T02:01:10;0.60;99.90
7814;DHT22;3952;48.364;16.022;2024-02-14T02:03:40;0.60;99.90
7814;DHT22;3952;48.364;16.022;2024-02-14T02:06:07;0.50;99.90
7814;DHT22;3952;48.364;16.022;2024-02-14T02:08:35;0.50;99.90
7814;DHT22;3952;48.364;16.022;2024-02-14T02:11:03;0.50;99.90
7814;DHT22;3952;48.364;16.022;2024-02-14T02:13:31;0.40;99.90
7814;DHT22;3952;48.364;16.022;2024-02-14T02:15:58;0.40;99.90
7814;DHT22;3952;48.364;16.022;2024-02-14T02:18:27;0.40;99.90
7814;DHT22;3952;48.364;16.022;2024-02-14T02:20:56;0.40;99.90
7814;DHT22;3952;48.364;16.022;2024-02-14T02:23:24;0.40;99.90
7814;DHT22;3952;48.364;16.022;2024-02-14T02:25:52;0.40;99.90
7814;DHT22;3952;48.364;16.022;2024-02-14T02:28:19;0.40;99.90
7814;DHT22;3952;48.364;16.022;2024-02-14T02:30:46;0.40;99.90
7814;DHT22;3952;48.364;16.022;2024-02-14T02:33:14;0.40;99.90
7814;DHT22;3952;48.364;16.022;2024-02-14T02:35:42;0.40;99.90
7814;DHT22;3952;48.364;16.022;2024-02-14T02:38:11;0.50;99.90
7814;DHT22;3952;48.364;16.022;2024-02-14T02:40:40;0.50;99.90
7814;DHT22;3952;48.364;16.022;2024-02-14T02:43:07;0.50;99.90
7814;DHT22;3952;48.364;16.022;2024-02-14T02:45:36;0.50;99.90
7814;DHT22;3952;48.364;16.022;2024-02-14T02:48:04;0.50;99.90
7814;DHT22;3952;48.364;16.022;2024-02-14T02:50:31;0.40;99.90
7814;DHT22;3952;48.364;16.022;2024-02-14T02:52:59;0.40;99.90
7814;DHT22;3952;48.364;16.022;2024-02-14T02:55:27;0.30;99.90
7814;DHT22;3952;48.364;16.022;2024-02-14T02:57:56;0.30;99.90
7814;DHT22;3952;48.364;16.022;2024-02-14T03:00:24;0.20;99.90
7814;DHT22;3952;48.364;16.022;2024-02-14T03:02:52;0.10;99.90
7814;DHT22;3952;48.364;16.022;2024-02-14T03:05:20;0.00;99.90
7814;DHT22;3952;48.364;16.022;2024-02-14T03:07:49;0.00;99.90
7814;DHT22;3952;48.364;16.022;2024-02-14T03:10:18;0.00;99.90
7814;DHT22;3952;48.364;16.022;2024-02-14T03:12:47;1.40;99.90
7814;DHT22;3952;48.364;16.022;2024-02-14T03:15:16;0.00;99.90
7814;DHT22;3952;48.364;16.022;2024-02-14T03:17:44;0.00;99.90
7814;DHT22;3952;48.364;16.022;2024-02-14T03:20:12;0.00;99.90
7814;DHT22;3952;48.364;16.022;2024-02-14T03:22:40;-0.10;99.90
7814;DHT22;3952;48.364;16.022;2024-02-14T03:25:12;-0.10;99.90
7814;DHT22;3952;48.364;16.022;2024-02-14T03:27:41;-0.10;99.90
7814;DHT22;3952;48.364;16.022;2024-02-14T03:30:09;-0.10;99.90
7814;DHT22;3952;48.364;16.022;2024-02-14T03:32:39;0.00;99.90
7814;DHT22;3952;48.364;16.022;2024-02-14T03:35:07;0.00;99.90
7814;DHT22;3952;48.364;16.022;2024-02-14T03:37:36;-0.10;99.90
7814;DHT22;3952;48.364;16.022;2024-02-14T03:40:06;-0.10;99.90
7814;DHT22;3952;48.364;16.022;2024-02-14T03:42:34;-0.10;99.90
7814;DHT22;3952;48.364;16.022;2024-02-14T03:45:02;-0.10;99.90
7814;DHT22;3952;48.364;16.022;2024-02-14T03:47:31;-0.20;99.90
7814;DHT22;3952;48.364;16.022;2024-02-14T03:50:00;-0.20;99.90
7814;DHT22;3952;48.364;16.022;2024-02-14T03:52:28;-0.30;99.90
7814;DHT22;3952;48.364;16.022;2024-02-14T03:54:58;-0.30;99.90
7814;DHT22;3952;48.364;16.022;2024-02-14T03:57:25;-0.30;99.90
7814;DHT22;3952;48.364;16.022;2024-02-14T03:59:54;-0.30;99.90
7814;DHT22;3952;48.364;16.022;2024-02-14T04:02:22;-0.30;99.90
7814;DHT22;3952;48.364;16.022;2024-02-14T04:04:50;-0.30;99.90
7814;DHT22;3952;48.364;16.022;2024-02-14T04:07:19;-0.30;99.90
7814;DHT22;3952;48.364;16.022;2024-02-14T04:09:47;-0.30;99.90
7814;DHT22;3952;48.364;16.022;2024-02-14T04:12:14;-0.30;99.90
7814;DHT22;3952;48.364;16.022;2024-02-14T04:14:42;-0.40;99.90
7814;DHT22;3952;48.364;16.022;2024-02-14T04:17:09;-0.30;99.90
7814;DHT22;3952;48.364;16.022;2024-02-14T04:19:38;-0.30;99.90
7814;DHT22;3952;48.364;16.022;2024-02-14T04:22:05;-0.30;99.90
7814;DHT22;3952;48.364;16.022;2024-02-14T04:24:35;-0.30;99.90
7814;DHT22;3952;48.364;16.022;2024-02-14T04:27:03;-0.30;99.90
7814;DHT22;3952;48.364;16.022;2024-02-14T04:29:30;-0.30;99.90
7814;DHT22;3952;48.364;16.022;2024-02-14T04:31:59;-0.30;99.90
7814;DHT22;3952;48.364;16.022;2024-02-14T04:34:26;-0.30;99.90
7814;DHT22;3952;48.364;16.022;2024-02-14T04:36:53;-0.30;99.90
7814;DHT22;3952;48.364;16.022;2024-02-14T04:39:21;-0.30;99.90
7814;DHT22;3952;48.364;16.022;2024-02-14T04:41:49;-0.30;99.90
7814;DHT22;3952;48.364;16.022;2024-02-14T04:44:17;-0.30;99.90
7814;DHT22;3952;48.364;16.022;2024-02-14T04:46:45;-0.30;99.90
7814;DHT22;3952;48.364;16.022;2024-02-14T04:49:12;-0.30;99.90
7814;DHT22;3952;48.364;16.022;2024-02-14T04:51:40;-0.30;99.90
7814;DHT22;3952;48.364;16.022;2024-02-14T04:54:08;-0.40;99.90
7814;DHT22;3952;48.364;16.022;2024-02-14T04:56:35;-0.40;99.90
7814;DHT22;3952;48.364;16.022;2024-02-14T04:59:04;-0.40;99.90
7814;DHT22;3952;48.364;16.022;2024-02-14T05:01:31;-0.40;99.90
7814;DHT22;3952;48.364;16.022;2024-02-14T05:03:58;-0.40;99.90
7814;DHT22;3952;48.364;16.022;2024-02-14T05:06:26;-0.50;99.90
7814;DHT22;3952;48.364;16.022;2024-02-14T05:08:53;-0.50;99.90
7814;DHT22;3952;48.364;16.022;2024-02-14T05:11:20;-0.40;99.90
7814;DHT22;3952;48.364;16.022;2024-02-14T05:13:48;-0.50;99.90
7814;DHT22;3952;48.364;16.022;2024-02-14T05:16:19;-0.50;99.90
7814;DHT22;3952;48.364;16.022;2024-02-14T05:18:47;-0.50;99.90
7814;DHT22;3952;48.364;16.022;2024-02-14T05:21:14;-0.60;99.90
7814;DHT22;3952;48.364;16.022;2024-02-14T05:23:42;-0.60;99.90
7814;DHT22;3952;48.364;16.022;2024-02-14T05:26:10;-0.60;99.90
7814;DHT22;3952;48.364;16.022;2024-02-14T05:28:37;-0.60;99.90
7814;DHT22;3952;48.364;16.022;2024-02-14T05:31:05;-0.60;99.90
7814;DHT22;3952;48.364;16.022;2024-02-14T05:33:34;-0.60;99.90
7814;DHT22;3952;48.364;16.022;2024-02-14T05:36:02;0.70;99.90
7814;DHT22;3952;48.364;16.022;2024-02-14T05:38:31;-0.60;99.90
7814;DHT22;3952;48.364;16.022;2024-02-14T05:40:59;-0.60;99.90
7814;DHT22;3952;48.364;16.022;2024-02-14T05:43:27;-0.70;99.90
7814;DHT22;3952;48.364;16.022;2024-02-14T05:45:54;-0.10;99.90
7814;DHT22;3952;48.364;16.022;2024-02-14T05:48:22;-0.70;99.90
7814;DHT22;3952;48.364;16.022;2024-02-14T05:50:50;-0.70;99.90
7814;DHT22;3952;48.364;16.022;2024-02-14T05:53:18;-0.80;99.90
7814;DHT22;3952;48.364;16.022;2024-02-14T05:55:46;-0.80;99.90
7814;DHT22;3952;48.364;16.022;2024-02-14T05:58:13;-0.80;99.90
7814;DHT22;3952;48.364;16.022;2024-02-14T06:00:40;-0.20;99.90
7814;DHT22;3952;48.364;16.022;2024-02-14T06:03:08;-0.80;99.90
7814;DHT22;3952;48.364;16.022;2024-02-14T06:05:35;-0.80;99.90
7814;DHT22;3952;48.364;16.022;2024-02-14T06:08:04;-0.80;99.90
7814;DHT22;3952;48.364;16.022;2024-02-14T06:10:32;-0.80;99.90
7814;DHT22;3952;48.364;16.022;2024-02-14T06:13:00;-0.70;99.90
7814;DHT22;3952;48.364;16.022;2024-02-14T06:15:27;-0.40;99.90
7814;DHT22;3952;48.364;16.022;2024-02-14T06:17:54;-0.70;99.90
7814;DHT22;3952;48.364;16.022;2024-02-14T06:20:22;-0.70;99.90
7814;DHT22;3952;48.364;16.022;2024-02-14T06:22:49;-0.70;99.90
7814;DHT22;3952;48.364;16.022;2024-02-14T06:25:18;-0.70;99.90
7814;DHT22;3952;48.364;16.022;2024-02-14T06:27:46;-0.70;99.90
7814;DHT22;3952;48.364;16.022;2024-02-14T06:30:13;-0.60;99.90
7814;DHT22;3952;48.364;16.022;2024-02-14T06:32:42;-0.60;99.90
7814;DHT22;3952;48.364;16.022;2024-02-14T06:35:10;-0.30;99.90
7814;DHT22;3952;48.364;16.022;2024-02-14T06:37:37;-0.60;99.90
7814;DHT22;3952;48.364;16.022;2024-02-14T06:40:05;-0.60;99.90
7814;DHT22;3952;48.364;16.022;2024-02-14T06:42:35;-0.60;99.90
7814;DHT22;3952;48.364;16.022;2024-02-14T06:45:03;-0.60;99.90
7814;DHT22;3952;48.364;16.022;2024-02-14T06:47:31;-0.50;99.90
7814;DHT22;3952;48.364;16.022;2024-02-14T06:49:58;-0.50;99.90
7814;DHT22;3952;48.364;16.022;2024-02-14T06:52:26;-0.50;99.90
7814;DHT22;3952;48.364;16.022;2024-02-14T06:54:54;-0.30;99.90
7814;DHT22;3952;48.364;16.022;2024-02-14T06:57:21;-0.30;99.90
7814;DHT22;3952;48.364;16.022;2024-02-14T06:59:50;-0.30;99.90
7814;DHT22;3952;48.364;16.022;2024-02-14T07:02:17;-0.20;99.90
7814;DHT22;3952;48.364;16.022;2024-02-14T07:04:44;-0.30;99.90
7814;DHT22;3952;48.364;16.022;2024-02-14T07:07:12;0.00;99.90
7814;DHT22;3952;48.364;16.022;2024-02-14T07:09:39;0.20;99.90
7814;DHT22;3952;48.364;16.022;2024-02-14T07:12:07;0.30;99.90
7814;DHT22;3952;48.364;16.022;2024-02-14T07:14:34;0.40;99.90
7814;DHT22;3952;48.364;16.022;2024-02-14T07:17:03;0.50;99.90
7814;DHT22;3952;48.364;16.022;2024-02-14T07:19:30;0.50;99.90
7814;DHT22;3952;48.364;16.022;2024-02-14T07:21:58;0.50;99.90
7814;DHT22;3952;48.364;16.022;2024-02-14T07:24:25;0.50;99.90
7814;DHT22;3952;48.364;16.022;2024-02-14T07:26:52;0.60;99.90
7814;DHT22;3952;48.364;16.022;2024-02-14T07:29:20;0.70;99.90
7814;DHT22;3952;48.364;16.022;2024-02-14T07:31:47;0.80;99.90
7814;DHT22;3952;48.364;16.022;2024-02-14T07:34:16;0.80;99.90
7814;DHT22;3952;48.364;16.022;2024-02-14T07:36:43;0.80;99.90
7814;DHT22;3952;48.364;16.022;2024-02-14T07:39:12;0.90;99.90
7814;DHT22;3952;48.364;16.022;2024-02-14T07:41:39;1.10;99.90
7814;DHT22;3952;48.364;16.022;2024-02-14T07:44:07;1.20;99.90
7814;DHT22;3952;48.364;16.022;2024-02-14T07:46:34;1.30;99.90
7814;DHT22;3952;48.364;16.022;2024-02-14T07:49:02;1.30;99.90
7814;DHT22;3952;48.364;16.022;2024-02-14T07:51:31;1.30;99.90
7814;DHT22;3952;48.364;16.022;2024-02-14T07:54:02;1.40;99.90
7814;DHT22;3952;48.364;16.022;2024-02-14T07:56:30;1.50;99.90
7814;DHT22;3952;48.364;16.022;2024-02-14T07:58:58;1.60;99.90
7814;DHT22;3952;48.364;16.022;2024-02-14T08:01:26;1.70;99.90
7814;DHT22;3952;48.364;16.022;2024-02-14T08:03:54;1.90;99.90
7814;DHT22;3952;48.364;16.022;2024-02-14T08:06:21;2.20;99.90
7814;DHT22;3952;48.364;16.022;2024-02-14T08:08:50;2.80;99.90
7814;DHT22;3952;48.364;16.022;2024-02-14T08:11:23;3.40;99.90
7814;DHT22;3952;48.364;16.022;2024-02-14T08:13:50;3.90;99.90
7814;DHT22;3952;48.364;16.022;2024-02-14T08:16:18;4.40;99.90
7814;DHT22;3952;48.364;16.022;2024-02-14T08:18:45;5.80;99.90
7814;DHT22;3952;48.364;16.022;2024-02-14T08:21:14;8.10;99.90
7814;DHT22;3952;48.364;16.022;2024-02-14T08:23:41;10.00;99.90
7814;DHT22;3952;48.364;16.022;2024-02-14T08:26:10;11.60;99.90
7814;DHT22;3952;48.364;16.022;2024-02-14T08:28:37;12.80;99.90
7814;DHT22;3952;48.364;16.022;2024-02-14T08:31:10;13.80;99.90
7814;DHT22;3952;48.364;16.022;2024-02-14T08:33:38;14.50;99.90
7814;DHT22;3952;48.364;16.022;2024-02-14T08:36:06;15.20;99.90
7814;DHT22;3952;48.364;16.022;2024-02-14T08:38:34;15.70;99.90
7814;DHT22;3952;48.364;16.022;2024-02-14T08:41:01;16.30;99.30
7814;DHT22;3952;48.364;16.022;2024-02-14T08:43:31;15.80;96.90
7814;DHT22;3952;48.364;16.022;2024-02-14T08:45:59;14.50;97.60
7814;DHT22;3952;48.364;16.022;2024-02-14T08:48:27;13.10;99.90
7814;DHT22;3952;48.364;16.022;2024-02-14T08:50:56;12.00;99.90
7814;DHT22;3952;48.364;16.022;2024-02-14T08:53:24;11.30;99.90
7814;DHT22;3952;48.364;16.022;2024-02-14T08:55:51;11.00;99.90
7814;DHT22;3952;48.364;16.022;2024-02-14T08:58:19;11.40;99.90
7814;DHT22;3952;48.364;16.022;2024-02-14T09:00:49;12.40;99.90
7814;DHT22;3952;48.364;16.022;2024-02-14T09:03:18;13.70;99.90
7814;DHT22;3952;48.364;16.022;2024-02-14T09:05:45;14.80;99.90
7814;DHT22;3952;48.364;16.022;2024-02-14T09:08:14;15.50;99.90
7814;DHT22;3952;48.364;16.022;2024-02-14T09:10:41;15.80;99.10
7814;DHT22;3952;48.364;16.022;2024-02-14T09:13:09;16.00;99.10
7814;DHT22;3952;48.364;16.022;2024-02-14T09:15:36;16.10;98.80
7814;DHT22;3952;48.364;16.022;2024-02-14T09:18:05;16.40;97.90
7814;DHT22;3952;48.364;16.022;2024-02-14T09:20:33;16.40;96.40
7814;DHT22;3952;48.364;16.022;2024-02-14T09:23:00;16.20;98.20
7814;DHT22;3952;48.364;16.022;2024-02-14T09:25:27;16.40;97.50
7814;DHT22;3952;48.364;16.022;2024-02-14T09:27:55;16.80;97.10
7814;DHT22;3952;48.364;16.022;2024-02-14T09:30:22;17.00;96.50
7814;DHT22;3952;48.364;16.022;2024-02-14T09:32:49;16.70;95.10
7814;DHT22;3952;48.364;16.022;2024-02-14T09:35:19;17.50;96.70
7814;DHT22;3952;48.364;16.022;2024-02-14T09:37:46;16.70;95.90
7814;DHT22;3952;48.364;16.022;2024-02-14T09:40:14;16.80;95.80
7814;DHT22;3952;48.364;16.022;2024-02-14T09:42:44;17.00;94.70
7814;DHT22;3952;48.364;16.022;2024-02-14T09:45:12;17.10;95.10
7814;DHT22;3952;48.364;16.022;2024-02-14T09:47:41;17.30;94.80
7814;DHT22;3952;48.364;16.022;2024-02-14T09:50:09;17.50;94.00
7814;DHT22;3952;48.364;16.022;2024-02-14T09:52:41;17.10;93.80
7814;DHT22;3952;48.364;16.022;2024-02-14T09:55:09;17.10;94.80
7814;DHT22;3952;48.364;16.022;2024-02-14T09:57:41;17.50;94.00
7814;DHT22;3952;48.364;16.022;2024-02-14T10:00:10;17.40;94.20
7814;DHT22;3952;48.364;16.022;2024-02-14T10:02:40;17.30;94.70
7814;DHT22;3952;48.364;16.022;2024-02-14T10:05:08;17.40;94.50
7814;DHT22;3952;48.364;16.022;2024-02-14T10:07:42;17.30;94.10
7814;DHT22;3952;48.364;16.022;2024-02-14T10:10:10;17.20;94.20
7814;DHT22;3952;48.364;16.022;2024-02-14T10:12:39;17.00;94.30
7814;DHT22;3952;48.364;16.022;2024-02-14T10:15:08;16.00;94.60
7814;DHT22;3952;48.364;16.022;2024-02-14T10:17:35;16.60;95.30
7814;DHT22;3952;48.364;16.022;2024-02-14T10:20:07;16.70;94.90
7814;DHT22;3952;48.364;16.022;2024-02-14T10:22:35;16.70;95.00
7814;DHT22;3952;48.364;16.022;2024-02-14T10:25:05;16.60;95.70
7814;DHT22;3952;48.364;16.022;2024-02-14T10:27:36;16.60;96.20
7814;DHT22;3952;48.364;16.022;2024-02-14T10:30:05;16.60;95.90
7814;DHT22;3952;48.364;16.022;2024-02-14T10:32:35;16.50;96.30
7814;DHT22;3952;48.364;16.022;2024-02-14T10:35:05;16.50;96.60
7814;DHT22;3952;48.364;16.022;2024-02-14T10:37:35;16.40;96.10
7814;DHT22;3952;48.364;16.022;2024-02-14T10:40:06;16.30;96.10
7814;DHT22;3952;48.364;16.022;2024-02-14T10:42:35;16.20;97.20
7814;DHT22;3952;48.364;16.022;2024-02-14T10:45:04;16.20;96.80
7814;DHT22;3952;48.364;16.022;2024-02-14T10:47:34;16.00;97.80
7814;DHT22;3952;48.364;16.022;2024-02-14T10:50:03;15.90;97.40
7814;DHT22;3952;48.364;16.022;2024-02-14T10:52:34;15.80;97.20
7814;DHT22;3952;48.364;16.022;2024-02-14T10:55:05;15.50;97.40
7814;DHT22;3952;48.364;16.022;2024-02-14T10:57:32;15.60;98.40
7814;DHT22;3952;48.364;16.022;2024-02-14T11:00:03;15.50;96.80
7814;DHT22;3952;48.364;16.022;2024-02-14T11:02:32;15.30;96.70
7814;DHT22;3952;48.364;16.022;2024-02-14T11:05:00;15.40;96.30
7814;DHT22;3952;48.364;16.022;2024-02-14T11:07:29;15.50;97.00
7814;DHT22;3952;48.364;16.022;2024-02-14T11:10:07;15.60;96.80
7814;DHT22;3952;48.364;16.022;2024-02-14T11:12:36;15.90;95.20
7814;DHT22;3952;48.364;16.022;2024-02-14T11:15:10;15.80;95.00
7814;DHT22;3952;48.364;16.022;2024-02-14T11:17:38;15.60;95.40
7814;DHT22;3952;48.364;16.022;2024-02-14T11:20:15;15.40;96.00
7814;DHT22;3952;48.364;16.022;2024-02-14T11:22:53;15.30;95.30
7814;DHT22;3952;48.364;16.022;2024-02-14T11:25:41;15.10;95.30
7814;DHT22;3952;48.364;16.022;2024-02-14T11:28:15;15.00;94.10
7814;DHT22;3952;48.364;16.022;2024-02-14T11:30:43;14.90;94.80
7814;DHT22;3952;48.364;16.022;2024-02-14T11:33:14;14.90;95.60
7814;DHT22;3952;48.364;16.022;2024-02-14T11:35:42;14.80;93.50
7814;DHT22;3952;48.364;16.022;2024-02-14T11:38:10;14.60;94.60
7814;DHT22;3952;48.364;16.022;2024-02-14T11:40:37;14.70;94.60
7814;DHT22;3952;48.364;16.022;2024-02-14T11:43:10;14.80;93.70
7814;DHT22;3952;48.364;16.022;2024-02-14T11:45:39;14.70;94.30
7814;DHT22;3952;48.364;16.022;2024-02-14T11:48:09;14.70;94.60
7814;DHT22;3952;48.364;16.022;2024-02-14T11:50:38;14.70;94.60
7814;DHT22;3952;48.364;16.022;2024-02-14T11:53:06;14.70;95.20
7814;DHT22;3952;48.364;16.022;2024-02-14T11:55:35;14.60;95.40
7814;DHT22;3952;48.364;16.022;2024-02-14T11:58:07;14.70;95.80
7814;DHT22;3952;48.364;16.022;2024-02-14T12:00:37;14.70;96.20
7814;DHT22;3952;48.364;16.022;2024-02-14T12:03:07;14.70;96.30
7814;DHT22;3952;48.364;16.022;2024-02-14T12:05:36;14.60;96.00
7814;DHT22;3952;48.364;16.022;2024-02-14T12:08:05;14.50;96.20
7814;DHT22;3952;48.364;16.022;2024-02-14T12:10:34;14.30;96.20
7814;DHT22;3952;48.364;16.022;2024-02-14T12:13:08;14.20;96.20
7814;DHT22;3952;48.364;16.022;2024-02-14T12:15:38;14.10;96.40
7814;DHT22;3952;48.364;16.022;2024-02-14T12:18:06;13.90;96.40
7814;DHT22;3952;48.364;16.022;2024-02-14T12:20:34;13.70;96.30
7814;DHT22;3952;48.364;16.022;2024-02-14T12:23:03;13.60;96.70
7814;DHT22;3952;48.364;16.022;2024-02-14T12:25:32;13.50;96.60
7814;DHT22;3952;48.364;16.022;2024-02-14T12:27:59;13.40;97.00
7814;DHT22;3952;48.364;16.022;2024-02-14T12:30:43;13.40;96.50
7814;DHT22;3952;48.364;16.022;2024-02-14T12:33:13;13.20;96.30
7814;DHT22;3952;48.364;16.022;2024-02-14T12:35:42;12.80;96.60
7814;DHT22;3952;48.364;16.022;2024-02-14T12:38:11;12.90;96.50
7814;DHT22;3952;48.364;16.022;2024-02-14T12:40:39;12.90;97.00
7814;DHT22;3952;48.364;16.022;2024-02-14T12:43:08;12.70;96.70
7814;DHT22;3952;48.364;16.022;2024-02-14T12:45:38;12.60;97.40
7814;DHT22;3952;48.364;16.022;2024-02-14T12:48:06;12.60;98.20
7814;DHT22;3952;48.364;16.022;2024-02-14T12:50:35;12.70;97.90
7814;DHT22;3952;48.364;16.022;2024-02-14T12:53:03;12.50;97.50
7814;DHT22;3952;48.364;16.022;2024-02-14T12:55:30;12.50;97.90
7814;DHT22;3952;48.364;16.022;2024-02-14T12:57:58;12.50;98.60
7814;DHT22;3952;48.364;16.022;2024-02-14T13:00:25;12.50;98.20
7814;DHT22;3952;48.364;16.022;2024-02-14T13:02:54;12.40;98.50
7814;DHT22;3952;48.364;16.022;2024-02-14T13:05:22;12.50;98.50
7814;DHT22;3952;48.364;16.022;2024-02-14T13:07:49;12.50;98.80
7814;DHT22;3952;48.364;16.022;2024-02-14T13:10:16;12.50;99.20
7814;DHT22;3952;48.364;16.022;2024-02-14T13:12:44;12.60;99.40
7814;DHT22;3952;48.364;16.022;2024-02-14T13:15:11;12.60;99.40
7814;DHT22;3952;48.364;16.022;2024-02-14T13:17:38;12.60;99.80
7814;DHT22;3952;48.364;16.022;2024-02-14T13:20:08;12.50;99.50
7814;DHT22;3952;48.364;16.022;2024-02-14T13:22:36;12.40;99.90
7814;DHT22;3952;48.364;16.022;2024-02-14T13:25:04;12.30;99.90
7814;DHT22;3952;48.364;16.022;2024-02-14T13:27:31;12.20;99.90
7814;DHT22;3952;48.364;16.022;2024-02-14T13:29:59;12.20;99.90
7814;DHT22;3952;48.364;16.022;2024-02-14T13:32:26;12.10;99.90
7814;DHT22;3952;48.364;16.022;2024-02-14T13:34:54;12.10;99.90
7814;DHT22;3952;48.364;16.022;2024-02-14T13:37:24;12.00;99.90
7814;DHT22;3952;48.364;16.022;2024-02-14T13:39:51;12.00;99.90
7814;DHT22;3952;48.364;16.022;2024-02-14T13:42:19;11.90;99.90
7814;DHT22;3952;48.364;16.022;2024-02-14T13:44:46;11.80;99.90
7814;DHT22;3952;48.364;16.022;2024-02-14T13:47:17;11.80;99.90
7814;DHT22;3952;48.364;16.022;2024-02-14T13:49:45;11.80;99.90
7814;DHT22;3952;48.364;16.022;2024-02-14T13:52:12;11.80;99.90
7814;DHT22;3952;48.364;16.022;2024-02-14T13:54:42;11.80;99.90
7814;DHT22;3952;48.364;16.022;2024-02-14T13:57:10;11.90;99.90
7814;DHT22;3952;48.364;16.022;2024-02-14T13:59:37;11.90;99.90
7814;DHT22;3952;48.364;16.022;2024-02-14T14:02:05;12.00;99.90
7814;DHT22;3952;48.364;16.022;2024-02-14T14:04:32;12.00;99.90
7814;DHT22;3952;48.364;16.022;2024-02-14T14:07:00;12.00;99.90
7814;DHT22;3952;48.364;16.022;2024-02-14T14:09:30;12.00;99.90
7814;DHT22;3952;48.364;16.022;2024-02-14T14:12:00;12.00;99.90
7814;DHT22;3952;48.364;16.022;2024-02-14T14:14:27;11.90;99.90
7814;DHT22;3952;48.364;16.022;2024-02-14T14:16:55;11.80;99.90
7814;DHT22;3952;48.364;16.022;2024-02-14T14:19:23;11.70;99.90
7814;DHT22;3952;48.364;16.022;2024-02-14T14:21:51;11.60;99.90
7814;DHT22;3952;48.364;16.022;2024-02-14T14:24:18;11.60;99.90
7814;DHT22;3952;48.364;16.022;2024-02-14T14:26:45;11.50;99.90
7814;DHT22;3952;48.364;16.022;2024-02-14T14:29:14;11.50;99.90
7814;DHT22;3952;48.364;16.022;2024-02-14T14:31:41;11.50;99.90
7814;DHT22;3952;48.364;16.022;2024-02-14T14:34:09;11.40;99.90
7814;DHT22;3952;48.364;16.022;2024-02-14T14:36:36;11.40;99.90
7814;DHT22;3952;48.364;16.022;2024-02-14T14:39:07;11.30;99.90
7814;DHT22;3952;48.364;16.022;2024-02-14T14:41:37;11.30;99.90
7814;DHT22;3952;48.364;16.022;2024-02-14T14:44:04;11.20;99.90
7814;DHT22;3952;48.364;16.022;2024-02-14T14:46:33;11.30;99.90
7814;DHT22;3952;48.364;16.022;2024-02-14T14:49:01;11.20;99.90
7814;DHT22;3952;48.364;16.022;2024-02-14T14:51:29;11.20;99.90
7814;DHT22;3952;48.364;16.022;2024-02-14T14:53:57;11.20;99.90
7814;DHT22;3952;48.364;16.022;2024-02-14T14:56:24;11.10;99.90
7814;DHT22;3952;48.364;16.022;2024-02-14T14:58:53;11.10;99.90
7814;DHT22;3952;48.364;16.022;2024-02-14T15:01:22;11.10;99.90
7814;DHT22;3952;48.364;16.022;2024-02-14T15:03:50;11.00;99.90
7814;DHT22;3952;48.364;16.022;2024-02-14T15:06:18;11.00;99.90
7814;DHT22;3952;48.364;16.022;2024-02-14T15:08:45;11.00;99.90
7814;DHT22;3952;48.364;16.022;2024-02-14T15:11:14;11.00;99.90
7814;DHT22;3952;48.364;16.022;2024-02-14T15:13:42;10.90;99.90
7814;DHT22;3952;48.364;16.022;2024-02-14T15:16:10;10.90;99.90
7814;DHT22;3952;48.364;16.022;2024-02-14T15:18:39;10.90;99.90
7814;DHT22;3952;48.364;16.022;2024-02-14T15:21:09;10.80;99.90
7814;DHT22;3952;48.364;16.022;2024-02-14T15:23:37;10.80;99.90
7814;DHT22;3952;48.364;16.022;2024-02-14T15:26:04;10.80;99.90
7814;DHT22;3952;48.364;16.022;2024-02-14T15:28:32;10.70;99.90
7814;DHT22;3952;48.364;16.022;2024-02-14T15:31:06;10.70;99.90
7814;DHT22;3952;48.364;16.022;2024-02-14T15:33:51;10.70;99.90
7814;DHT22;3952;48.364;16.022;2024-02-14T15:36:20;10.60;99.90
7814;DHT22;3952;48.364;16.022;2024-02-14T15:38:48;10.60;99.90
7814;DHT22;3952;48.364;16.022;2024-02-14T15:41:15;10.60;99.90
7814;DHT22;3952;48.364;16.022;2024-02-14T15:43:43;10.50;99.90
7814;DHT22;3952;48.364;16.022;2024-02-14T15:46:11;10.50;99.90
7814;DHT22;3952;48.364;16.022;2024-02-14T15:48:39;10.50;99.90
7814;DHT22;3952;48.364;16.022;2024-02-14T15:51:06;10.50;99.90
7814;DHT22;3952;48.364;16.022;2024-02-14T15:53:36;10.50;99.90
7814;DHT22;3952;48.364;16.022;2024-02-14T15:56:04;10.50;99.90